sensor_id;sensor_type;location;lat;lon;timestamp;pressure;altitude;pressure_sealevel;temperature;humidity
25084;BME280;13075;55.682;37.564;2023-02-12T00:02:08;98053.25;;;4.25;100.00
25084;BME280;13075;55.682;37.564;2023-02-12T00:04:35;98054.47;;;4.29;100.00
25084;BME280;13075;55.682;37.564;2023-02-12T00:07:00;98066.59;;;4.11;100.00
25084;BME280;13075;55.682;37.564;2023-02-12T00:09:26;98076.22;;;3.84;100.00
25084;BME280;13075;55.682;37.564;2023-02-12T00:11:52;98086.81;;;3.91;100.00
25084;BME280;13075;55.682;37.564;2023-02-12T00:14:17;98084.41;;;3.40;100.00
25084;BME280;13075;55.682;37.564;2023-02-12T00:16:43;98091.16;;;3.70;100.00
25084;BME280;13075;55.682;37.564;2023-02-12T00:19:09;98098.88;;;3.44;100.00
25084;BME280;13075;55.682;37.564;2023-02-12T00:21:35;98105.19;;;3.71;100.00
25084;BME280;13075;55.682;37.564;2023-02-12T00:24:01;98114.97;;;3.49;100.00
25084;BME280;13075;55.682;37.564;2023-02-12T00:26:27;98119.06;;;3.31;100.00
25084;BME280;13075;55.682;37.564;2023-02-12T00:28:53;98127.13;;;3.01;100.00
25084;BME280;13075;55.682;37.564;2023-02-12T00:31:22;98126.63;;;2.77;100.00
25084;BME280;13075;55.682;37.564;2023-02-12T00:33:48;98147.50;;;2.13;100.00
25084;BME280;13075;55.682;37.564;2023-02-12T00:36:17;98166.34;;;2.25;100.00
25084;BME280;13075;55.682;37.564;2023-02-12T00:38:44;98168.88;;;2.33;100.00
25084;BME280;13075;55.682;37.564;2023-02-12T00:41:10;98159.94;;;2.78;100.00
25084;BME280;13075;55.682;37.564;2023-02-12T00:43:35;98184.34;;;2.50;100.00
25084;BME280;13075;55.682;37.564;2023-02-12T00:46:01;98182.63;;;2.43;100.00
25084;BME280;13075;55.682;37.564;2023-02-12T00:48:27;98190.63;;;2.64;100.00
25084;BME280;13075;55.682;37.564;2023-02-12T00:50:52;98204.19;;;2.32;100.00
25084;BME280;13075;55.682;37.564;2023-02-12T00:53:18;98200.56;;;2.47;100.00
25084;BME280;13075;55.682;37.564;2023-02-12T00:55:45;98207.81;;;3.04;100.00
25084;BME280;13075;55.682;37.564;2023-02-12T00:58:11;98212.84;;;2.40;100.00
25084;BME280;13075;55.682;37.564;2023-02-12T01:03:19;98226.44;;;2.81;100.00
25084;BME280;13075;55.682;37.564;2023-02-12T01:05:44;98229.50;;;2.85;100.00
25084;BME280;13075;55.682;37.564;2023-02-12T01:08:15;98234.59;;;2.72;100.00
25084;BME280;13075;55.682;37.564;2023-02-12T01:10:41;98242.88;;;2.69;100.00
25084;BME280;13075;55.682;37.564;2023-02-12T01:13:13;98255.97;;;2.33;100.00
25084;BME280;13075;55.682;37.564;2023-02-12T01:15:40;98274.56;;;2.54;100.00
25084;BME280;13075;55.682;37.564;2023-02-12T01:18:06;98276.16;;;2.40;100.00
25084;BME280;13075;55.682;37.564;2023-02-12T01:20:32;98256.19;;;2.75;100.00
25084;BME280;13075;55.682;37.564;2023-02-12T01:22:58;98298.97;;;2.19;100.00
25084;BME280;13075;55.682;37.564;2023-02-12T01:25:26;98296.00;;;2.36;100.00
25084;BME280;13075;55.682;37.564;2023-02-12T01:27:53;98292.31;;;2.60;100.00
25084;BME280;13075;55.682;37.564;2023-02-12T01:30:19;98302.94;;;2.37;100.00
25084;BME280;13075;55.682;37.564;2023-02-12T01:32:49;98310.28;;;2.05;100.00
25084;BME280;13075;55.682;37.564;2023-02-12T01:35:15;98323.16;;;2.00;100.00
25084;BME280;13075;55.682;37.564;2023-02-12T01:37:41;98332.84;;;2.07;100.00
25084;BME280;13075;55.682;37.564;2023-02-12T01:40:08;98337.41;;;2.13;100.00
25084;BME280;13075;55.682;37.564;2023-02-12T01:42:34;98348.16;;;1.81;100.00
25084;BME280;13075;55.682;37.564;2023-02-12T01:47:39;98365.06;;;2.17;100.00
25084;BME280;13075;55.682;37.564;2023-02-12T01:50:06;98367.59;;;2.33;100.00
25084;BME280;13075;55.682;37.564;2023-02-12T01:52:35;98370.38;;;1.86;100.00
25084;BME280;13075;55.682;37.564;2023-02-12T01:55:06;98379.19;;;2.02;100.00
25084;BME280;13075;55.682;37.564;2023-02-12T01:57:36;98391.75;;;1.69;100.00
25084;BME280;13075;55.682;37.564;2023-02-12T02:00:06;98385.75;;;1.52;100.00
25084;BME280;13075;55.682;37.564;2023-02-12T02:02:39;98402.03;;;1.86;100.00
25084;BME280;13075;55.682;37.564;2023-02-12T02:05:06;98418.13;;;1.61;100.00
25084;BME280;13075;55.682;37.564;2023-02-12T02:07:32;98403.38;;;1.44;100.00
25084;BME280;13075;55.682;37.564;2023-02-12T02:09:58;98407.03;;;1.35;100.00
25084;BME280;13075;55.682;37.564;2023-02-12T02:12:27;98417.38;;;1.44;100.00
25084;BME280;13075;55.682;37.564;2023-02-12T02:15:12;98420.38;;;1.33;100.00
25084;BME280;13075;55.682;37.564;2023-02-12T02:17:46;98431.22;;;1.38;100.00
25084;BME280;13075;55.682;37.564;2023-02-12T02:29:13;98457.38;;;1.48;100.00
25084;BME280;13075;55.682;37.564;2023-02-12T02:35:06;98478.66;;;1.30;100.00
25084;BME280;13075;55.682;37.564;2023-02-12T02:37:39;98483.28;;;1.28;100.00
25084;BME280;13075;55.682;37.564;2023-02-12T02:40:22;98490.13;;;1.53;100.00
25084;BME280;13075;55.682;37.564;2023-02-12T02:43:02;98508.97;;;1.34;100.00
25084;BME280;13075;55.682;37.564;2023-02-12T02:46:08;98510.13;;;1.32;100.00
25084;BME280;13075;55.682;37.564;2023-02-12T02:48:36;98516.88;;;0.86;100.00
25084;BME280;13075;55.682;37.564;2023-02-12T02:51:11;98523.63;;;1.20;100.00
25084;BME280;13075;55.682;37.564;2023-02-12T02:53:45;98522.38;;;1.63;100.00
25084;BME280;13075;55.682;37.564;2023-02-12T02:56:19;98535.59;;;1.47;100.00
25084;BME280;13075;55.682;37.564;2023-02-12T02:58:50;98545.34;;;1.14;100.00
25084;BME280;13075;55.682;37.564;2023-02-12T03:02:08;98554.25;;;1.05;100.00
25084;BME280;13075;55.682;37.564;2023-02-12T03:04:09;98559.44;;;0.57;100.00
25084;BME280;13075;55.682;37.564;2023-02-12T03:07:05;98563.66;;;0.42;100.00
25084;BME280;13075;55.682;37.564;2023-02-12T03:09:39;98572.59;;;0.65;100.00
25084;BME280;13075;55.682;37.564;2023-02-12T03:12:16;98580.22;;;0.84;100.00
25084;BME280;13075;55.682;37.564;2023-02-12T03:14:49;98588.53;;;0.55;100.00
25084;BME280;13075;55.682;37.564;2023-02-12T03:17:26;98600.84;;;0.47;100.00
25084;BME280;13075;55.682;37.564;2023-02-12T03:20:02;98591.19;;;0.63;100.00
25084;BME280;13075;55.682;37.564;2023-02-12T03:22:33;98601.00;;;1.52;100.00
25084;BME280;13075;55.682;37.564;2023-02-12T03:25:10;98603.63;;;1.27;100.00
25084;BME280;13075;55.682;37.564;2023-02-12T03:27:53;98604.78;;;1.49;100.00
25084;BME280;13075;55.682;37.564;2023-02-12T03:30:24;98627.66;;;1.24;100.00
25084;BME280;13075;55.682;37.564;2023-02-12T03:33:34;98634.41;;;1.43;100.00
25084;BME280;13075;55.682;37.564;2023-02-12T03:36:12;98625.53;;;1.44;100.00
25084;BME280;13075;55.682;37.564;2023-02-12T03:38:45;98632.94;;;1.65;100.00
25084;BME280;13075;55.682;37.564;2023-02-12T03:41:19;98653.88;;;1.34;100.00
25084;BME280;13075;55.682;37.564;2023-02-12T03:43:48;98658.91;;;1.11;100.00
25084;BME280;13075;55.682;37.564;2023-02-12T03:46:22;98664.56;;;1.49;100.00
25084;BME280;13075;55.682;37.564;2023-02-12T03:48:58;98665.34;;;1.17;100.00
25084;BME280;13075;55.682;37.564;2023-02-12T03:51:34;98669.19;;;1.47;100.00
25084;BME280;13075;55.682;37.564;2023-02-12T03:54:02;98682.34;;;1.39;100.00
25084;BME280;13075;55.682;37.564;2023-02-12T03:56:44;98677.75;;;1.57;100.00
25084;BME280;13075;55.682;37.564;2023-02-12T03:59:13;98690.28;;;0.81;100.00
25084;BME280;13075;55.682;37.564;2023-02-12T04:01:39;98689.63;;;0.45;100.00
25084;BME280;13075;55.682;37.564;2023-02-12T04:04:07;98698.63;;;1.26;100.00
25084;BME280;13075;55.682;37.564;2023-02-12T04:06:33;98695.59;;;0.97;100.00
25084;BME280;13075;55.682;37.564;2023-02-12T04:09:06;98720.09;;;0.89;100.00
25084;BME280;13075;55.682;37.564;2023-02-12T04:17:14;98723.59;;;1.06;100.00
25084;BME280;13075;55.682;37.564;2023-02-12T04:28:29;98755.75;;;0.24;100.00
25084;BME280;13075;55.682;37.564;2023-02-12T04:31:03;98762.81;;;0.49;100.00
25084;BME280;13075;55.682;37.564;2023-02-12T04:33:39;98776.16;;;0.82;100.00
25084;BME280;13075;55.682;37.564;2023-02-12T04:36:32;98769.75;;;0.25;100.00
25084;BME280;13075;55.682;37.564;2023-02-12T04:39:11;98791.97;;;0.30;100.00
25084;BME280;13075;55.682;37.564;2023-02-12T04:41:39;98787.59;;;0.65;100.00
25084;BME280;13075;55.682;37.564;2023-02-12T04:44:22;98790.19;;;0.90;100.00
25084;BME280;13075;55.682;37.564;2023-02-12T04:46:49;98788.81;;;0.52;100.00
25084;BME280;13075;55.682;37.564;2023-02-12T04:49:17;98805.38;;;0.45;100.00
25084;BME280;13075;55.682;37.564;2023-02-12T04:51:44;98814.00;;;0.55;100.00
25084;BME280;13075;55.682;37.564;2023-02-12T04:54:11;98803.06;;;0.68;100.00
25084;BME280;13075;55.682;37.564;2023-02-12T04:56:37;98815.41;;;0.67;100.00
25084;BME280;13075;55.682;37.564;2023-02-12T04:59:03;98817.56;;;0.46;100.00
25084;BME280;13075;55.682;37.564;2023-02-12T05:01:29;98836.94;;;0.45;100.00
25084;BME280;13075;55.682;37.564;2023-02-12T05:03:54;98841.59;;;0.25;100.00
25084;BME280;13075;55.682;37.564;2023-02-12T05:06:20;98855.31;;;0.62;100.00
25084;BME280;13075;55.682;37.564;2023-02-12T05:08:46;98844.03;;;0.27;100.00
25084;BME280;13075;55.682;37.564;2023-02-12T05:11:11;98858.91;;;0.18;100.00
25084;BME280;13075;55.682;37.564;2023-02-12T05:13:37;98868.47;;;0.37;100.00
25084;BME280;13075;55.682;37.564;2023-02-12T05:16:04;98865.66;;;0.56;100.00
25084;BME280;13075;55.682;37.564;2023-02-12T05:18:31;98878.06;;;0.46;100.00
25084;BME280;13075;55.682;37.564;2023-02-12T05:20:58;98868.78;;;0.59;100.00
25084;BME280;13075;55.682;37.564;2023-02-12T05:23:26;98892.28;;;0.53;100.00
25084;BME280;13075;55.682;37.564;2023-02-12T05:25:53;98889.41;;;0.64;100.00
25084;BME280;13075;55.682;37.564;2023-02-12T05:28:19;98899.06;;;0.38;100.00
25084;BME280;13075;55.682;37.564;2023-02-12T05:30:44;98904.09;;;0.49;100.00
25084;BME280;13075;55.682;37.564;2023-02-12T05:33:10;98916.94;;;0.78;100.00
25084;BME280;13075;55.682;37.564;2023-02-12T05:35:35;98914.81;;;0.55;100.00
25084;BME280;13075;55.682;37.564;2023-02-12T05:38:01;98918.44;;;0.37;100.00
25084;BME280;13075;55.682;37.564;2023-02-12T05:40:27;98922.50;;;0.31;100.00
25084;BME280;13075;55.682;37.564;2023-02-12T05:42:52;98938.53;;;0.81;100.00
25084;BME280;13075;55.682;37.564;2023-02-12T05:45:18;98938.28;;;0.49;100.00
25084;BME280;13075;55.682;37.564;2023-02-12T05:47:43;98943.41;;;0.33;100.00
25084;BME280;13075;55.682;37.564;2023-02-12T05:50:09;98938.13;;;0.15;100.00
25084;BME280;13075;55.682;37.564;2023-02-12T05:52:35;98944.97;;;0.43;100.00
25084;BME280;13075;55.682;37.564;2023-02-12T05:55:01;98957.59;;;0.40;100.00
25084;BME280;13075;55.682;37.564;2023-02-12T05:57:26;98974.88;;;0.78;100.00
25084;BME280;13075;55.682;37.564;2023-02-12T05:59:52;98968.34;;;0.29;100.00
25084;BME280;13075;55.682;37.564;2023-02-12T06:02:18;98967.66;;;0.62;100.00
25084;BME280;13075;55.682;37.564;2023-02-12T06:04:43;98970.16;;;0.28;100.00
25084;BME280;13075;55.682;37.564;2023-02-12T06:07:09;98977.44;;;0.52;100.00
25084;BME280;13075;55.682;37.564;2023-02-12T06:09:36;98976.94;;;0.48;100.00
25084;BME280;13075;55.682;37.564;2023-02-12T06:12:01;98991.13;;;0.73;100.00
25084;BME280;13075;55.682;37.564;2023-02-12T06:14:27;98989.63;;;0.53;100.00
25084;BME280;13075;55.682;37.564;2023-02-12T06:16:53;98996.69;;;0.70;100.00
25084;BME280;13075;55.682;37.564;2023-02-12T06:19:19;99004.75;;;0.69;100.00
25084;BME280;13075;55.682;37.564;2023-02-12T06:21:45;99018.66;;;0.61;100.00
25084;BME280;13075;55.682;37.564;2023-02-12T06:24:12;99024.97;;;0.68;100.00
25084;BME280;13075;55.682;37.564;2023-02-12T06:26:38;99036.25;;;0.78;100.00
25084;BME280;13075;55.682;37.564;2023-02-12T06:29:04;99038.03;;;0.60;100.00
25084;BME280;13075;55.682;37.564;2023-02-12T06:31:32;99052.50;;;0.56;100.00
25084;BME280;13075;55.682;37.564;2023-02-12T06:34:02;99068.09;;;0.40;100.00
25084;BME280;13075;55.682;37.564;2023-02-12T06:36:28;99066.75;;;0.36;100.00
25084;BME280;13075;55.682;37.564;2023-02-12T06:38:54;99073.06;;;0.43;100.00
25084;BME280;13075;55.682;37.564;2023-02-12T06:41:21;99081.41;;;0.38;100.00
25084;BME280;13075;55.682;37.564;2023-02-12T06:43:47;99088.19;;;0.41;100.00
25084;BME280;13075;55.682;37.564;2023-02-12T06:46:14;99087.53;;;0.29;100.00
25084;BME280;13075;55.682;37.564;2023-02-12T06:48:39;99099.19;;;0.27;100.00
25084;BME280;13075;55.682;37.564;2023-02-12T06:51:12;99090.97;;;0.57;100.00
25084;BME280;13075;55.682;37.564;2023-02-12T06:53:38;99096.25;;;0.30;100.00
25084;BME280;13075;55.682;37.564;2023-02-12T06:56:06;99123.44;;;0.48;100.00
25084;BME280;13075;55.682;37.564;2023-02-12T06:58:36;99115.25;;;0.51;100.00
25084;BME280;13075;55.682;37.564;2023-02-12T07:03:41;99125.75;;;0.24;100.00
25084;BME280;13075;55.682;37.564;2023-02-12T07:06:08;99113.28;;;-0.02;100.00
25084;BME280;13075;55.682;37.564;2023-02-12T07:08:34;99129.44;;;0.40;100.00
25084;BME280;13075;55.682;37.564;2023-02-12T07:11:00;99141.03;;;0.20;100.00
25084;BME280;13075;55.682;37.564;2023-02-12T07:13:25;99145.94;;;0.33;100.00
25084;BME280;13075;55.682;37.564;2023-02-12T07:15:51;99145.56;;;0.18;100.00
25084;BME280;13075;55.682;37.564;2023-02-12T07:18:16;99154.44;;;0.54;100.00
25084;BME280;13075;55.682;37.564;2023-02-12T07:20:43;99145.84;;;0.52;100.00
25084;BME280;13075;55.682;37.564;2023-02-12T07:23:11;99160.75;;;0.34;100.00
25084;BME280;13075;55.682;37.564;2023-02-12T07:25:37;99157.09;;;0.44;100.00
25084;BME280;13075;55.682;37.564;2023-02-12T07:28:03;99161.97;;;0.39;100.00
25084;BME280;13075;55.682;37.564;2023-02-12T07:30:29;99163.31;;;0.53;100.00
25084;BME280;13075;55.682;37.564;2023-02-12T07:32:55;99165.28;;;0.41;100.00
25084;BME280;13075;55.682;37.564;2023-02-12T07:35:20;99191.50;;;0.33;100.00
25084;BME280;13075;55.682;37.564;2023-02-12T07:37:46;99195.25;;;0.31;100.00
25084;BME280;13075;55.682;37.564;2023-02-12T07:40:11;99195.78;;;0.34;100.00
25084;BME280;13075;55.682;37.564;2023-02-12T07:42:37;99192.47;;;0.69;100.00
25084;BME280;13075;55.682;37.564;2023-02-12T07:45:05;99186.84;;;0.18;100.00
25084;BME280;13075;55.682;37.564;2023-02-12T07:47:31;99206.97;;;0.36;100.00
25084;BME280;13075;55.682;37.564;2023-02-12T07:49:57;99202.38;;;0.02;100.00
25084;BME280;13075;55.682;37.564;2023-02-12T07:52:23;99208.22;;;0.42;100.00
25084;BME280;13075;55.682;37.564;2023-02-12T07:54:48;99223.75;;;0.35;100.00
25084;BME280;13075;55.682;37.564;2023-02-12T07:57:14;99226.56;;;0.15;100.00
25084;BME280;13075;55.682;37.564;2023-02-12T07:59:39;99232.00;;;0.04;100.00
25084;BME280;13075;55.682;37.564;2023-02-12T08:02:05;99221.34;;;-0.05;100.00
25084;BME280;13075;55.682;37.564;2023-02-12T08:04:31;99222.97;;;0.25;100.00
25084;BME280;13075;55.682;37.564;2023-02-12T08:06:56;99222.19;;;-0.14;100.00
25084;BME280;13075;55.682;37.564;2023-02-12T08:09:27;99251.47;;;0.11;100.00
25084;BME280;13075;55.682;37.564;2023-02-12T08:11:55;99249.53;;;0.22;100.00
25084;BME280;13075;55.682;37.564;2023-02-12T08:14:21;99264.59;;;0.30;100.00
25084;BME280;13075;55.682;37.564;2023-02-12T08:16:48;99249.06;;;0.36;100.00
25084;BME280;13075;55.682;37.564;2023-02-12T08:19:14;99269.41;;;0.53;100.00
25084;BME280;13075;55.682;37.564;2023-02-12T08:21:40;99273.94;;;0.05;100.00
25084;BME280;13075;55.682;37.564;2023-02-12T08:24:06;99272.06;;;0.34;100.00
25084;BME280;13075;55.682;37.564;2023-02-12T08:26:36;99269.34;;;0.17;100.00
25084;BME280;13075;55.682;37.564;2023-02-12T08:29:11;99287.50;;;-0.09;100.00
25084;BME280;13075;55.682;37.564;2023-02-12T08:31:39;99287.34;;;-0.08;100.00
25084;BME280;13075;55.682;37.564;2023-02-12T08:34:09;99279.13;;;0.34;100.00
25084;BME280;13075;55.682;37.564;2023-02-12T08:36:39;99291.19;;;0.27;100.00
25084;BME280;13075;55.682;37.564;2023-02-12T08:39:06;99301.69;;;0.36;100.00
25084;BME280;13075;55.682;37.564;2023-02-12T08:41:32;99290.94;;;0.11;100.00
25084;BME280;13075;55.682;37.564;2023-02-12T08:44:00;99303.81;;;0.14;100.00
25084;BME280;13075;55.682;37.564;2023-02-12T08:46:28;99302.66;;;0.45;100.00
25084;BME280;13075;55.682;37.564;2023-02-12T08:48:57;99291.84;;;0.48;100.00
25084;BME280;13075;55.682;37.564;2023-02-12T08:51:26;99309.06;;;0.14;100.00
25084;BME280;13075;55.682;37.564;2023-02-12T08:53:54;99304.78;;;0.22;100.00
25084;BME280;13075;55.682;37.564;2023-02-12T08:56:21;99308.00;;;0.72;100.00
25084;BME280;13075;55.682;37.564;2023-02-12T08:58:47;99305.84;;;0.29;100.00
25084;BME280;13075;55.682;37.564;2023-02-12T09:01:16;99312.53;;;0.05;100.00
25084;BME280;13075;55.682;37.564;2023-02-12T09:03:42;99314.56;;;0.39;100.00
25084;BME280;13075;55.682;37.564;2023-02-12T09:06:08;99317.09;;;0.78;100.00
25084;BME280;13075;55.682;37.564;2023-02-12T09:08:36;99322.22;;;1.16;100.00
25084;BME280;13075;55.682;37.564;2023-02-12T09:11:07;99330.19;;;0.97;100.00
25084;BME280;13075;55.682;37.564;2023-02-12T09:13:33;99329.91;;;1.00;100.00
25084;BME280;13075;55.682;37.564;2023-02-12T09:16:01;99348.94;;;0.19;100.00
25084;BME280;13075;55.682;37.564;2023-02-12T09:18:27;99334.44;;;0.71;100.00
25084;BME280;13075;55.682;37.564;2023-02-12T09:20:52;99345.97;;;0.70;100.00
25084;BME280;13075;55.682;37.564;2023-02-12T09:23:18;99353.44;;;0.55;100.00
25084;BME280;13075;55.682;37.564;2023-02-12T09:25:45;99361.44;;;0.73;100.00
25084;BME280;13075;55.682;37.564;2023-02-12T09:28:12;99362.88;;;1.04;100.00
25084;BME280;13075;55.682;37.564;2023-02-12T09:30:38;99374.16;;;0.87;100.00
25084;BME280;13075;55.682;37.564;2023-02-12T09:33:06;99374.38;;;1.40;100.00
25084;BME280;13075;55.682;37.564;2023-02-12T09:35:37;99361.94;;;1.32;100.00
25084;BME280;13075;55.682;37.564;2023-02-12T09:38:03;99359.91;;;1.16;100.00
25084;BME280;13075;55.682;37.564;2023-02-12T09:43:23;99355.78;;;1.86;100.00
25084;BME280;13075;55.682;37.564;2023-02-12T09:45:59;99363.84;;;2.20;100.00
25084;BME280;13075;55.682;37.564;2023-02-12T09:51:27;99371.97;;;1.73;100.00
25084;BME280;13075;55.682;37.564;2023-02-12T09:54:16;99361.50;;;1.64;100.00
25084;BME280;13075;55.682;37.564;2023-02-12T09:56:46;99375.47;;;1.10;100.00
25084;BME280;13075;55.682;37.564;2023-02-12T09:59:42;99386.44;;;1.42;100.00
25084;BME280;13075;55.682;37.564;2023-02-12T10:02:18;99385.13;;;1.56;100.00
25084;BME280;13075;55.682;37.564;2023-02-12T10:04:46;99396.41;;;1.48;100.00
25084;BME280;13075;55.682;37.564;2023-02-12T10:13:19;99388.13;;;1.88;100.00
25084;BME280;13075;55.682;37.564;2023-02-12T10:15:31;99394.97;;;1.81;100.00
25084;BME280;13075;55.682;37.564;2023-02-12T10:18:35;99387.31;;;1.33;100.00
25084;BME280;13075;55.682;37.564;2023-02-12T10:26:33;99414.41;;;0.50;100.00
25084;BME280;13075;55.682;37.564;2023-02-12T10:29:12;99405.50;;;0.80;100.00
25084;BME280;13075;55.682;37.564;2023-02-12T10:31:42;99403.84;;;0.79;100.00
25084;BME280;13075;55.682;37.564;2023-02-12T10:34:34;99415.91;;;1.28;100.00
25084;BME280;13075;55.682;37.564;2023-02-12T10:40:20;99428.69;;;1.60;100.00
25084;BME280;13075;55.682;37.564;2023-02-12T10:42:49;99431.22;;;1.52;100.00
25084;BME280;13075;55.682;37.564;2023-02-12T10:45:19;99444.00;;;1.37;100.00
25084;BME280;13075;55.682;37.564;2023-02-12T10:47:46;99439.94;;;1.15;100.00
25084;BME280;13075;55.682;37.564;2023-02-12T10:52:55;99434.47;;;1.26;100.00
25084;BME280;13075;55.682;37.564;2023-02-12T10:55:33;99437.84;;;1.56;100.00
25084;BME280;13075;55.682;37.564;2023-02-12T10:58:02;99444.41;;;1.52;100.00
25084;BME280;13075;55.682;37.564;2023-02-12T11:00:35;99452.06;;;1.36;100.00
25084;BME280;13075;55.682;37.564;2023-02-12T11:05:38;99460.88;;;1.07;100.00
25084;BME280;13075;55.682;37.564;2023-02-12T11:08:05;99457.97;;;1.47;100.00
25084;BME280;13075;55.682;37.564;2023-02-12T11:10:37;99464.19;;;1.93;100.00
25084;BME280;13075;55.682;37.564;2023-02-12T11:13:03;99461.44;;;1.84;100.00
25084;BME280;13075;55.682;37.564;2023-02-12T11:15:36;99467.78;;;1.64;100.00
25084;BME280;13075;55.682;37.564;2023-02-12T11:18:06;99481.00;;;1.55;100.00
25084;BME280;13075;55.682;37.564;2023-02-12T11:21:33;99480.53;;;1.22;100.00
25084;BME280;13075;55.682;37.564;2023-02-12T11:26:02;99496.97;;;0.59;100.00
25084;BME280;13075;55.682;37.564;2023-02-12T11:28:30;99504.72;;;0.70;100.00
25084;BME280;13075;55.682;37.564;2023-02-12T11:31:01;99506.78;;;0.86;100.00
25084;BME280;13075;55.682;37.564;2023-02-12T11:33:32;99516.50;;;0.66;100.00
25084;BME280;13075;55.682;37.564;2023-02-12T11:36:16;99515.66;;;0.75;100.00
25084;BME280;13075;55.682;37.564;2023-02-12T11:39:03;99523.44;;;0.77;100.00
25084;BME280;13075;55.682;37.564;2023-02-12T11:41:33;99519.63;;;0.31;100.00
25084;BME280;13075;55.682;37.564;2023-02-12T11:44:12;99538.25;;;0.58;100.00
25084;BME280;13075;55.682;37.564;2023-02-12T11:46:53;99535.06;;;0.74;100.00
25084;BME280;13075;55.682;37.564;2023-02-12T11:49:23;99528.53;;;0.49;100.00
25084;BME280;13075;55.682;37.564;2023-02-12T11:51:50;99539.78;;;0.51;100.00
25084;BME280;13075;55.682;37.564;2023-02-12T11:54:20;99535.25;;;0.14;100.00
25084;BME280;13075;55.682;37.564;2023-02-12T11:56:47;99549.84;;;0.37;100.00
25084;BME280;13075;55.682;37.564;2023-02-12T11:59:35;99549.88;;;0.46;100.00
25084;BME280;13075;55.682;37.564;2023-02-12T12:02:17;99550.56;;;0.58;100.00
25084;BME280;13075;55.682;37.564;2023-02-12T12:04:50;99563.63;;;0.79;100.00
25084;BME280;13075;55.682;37.564;2023-02-12T12:07:24;99571.22;;;0.91;100.00
25084;BME280;13075;55.682;37.564;2023-02-12T12:10:33;99564.09;;;1.59;100.00
25084;BME280;13075;55.682;37.564;2023-02-12T12:13:03;99579.22;;;1.47;100.00
25084;BME280;13075;55.682;37.564;2023-02-12T12:15:37;99572.41;;;1.64;100.00
25084;BME280;13075;55.682;37.564;2023-02-12T12:22:15;99599.81;;;1.15;100.00
25084;BME280;13075;55.682;37.564;2023-02-12T12:31:01;99611.00;;;0.88;100.00
25084;BME280;13075;55.682;37.564;2023-02-12T12:35:59;99612.38;;;0.63;100.00
25084;BME280;13075;55.682;37.564;2023-02-12T12:50:03;99645.91;;;0.71;100.00
25084;BME280;13075;55.682;37.564;2023-02-12T12:55:33;99659.13;;;1.09;100.00
25084;BME280;13075;55.682;37.564;2023-02-12T13:09:18;99683.84;;;-0.02;100.00
25084;BME280;13075;55.682;37.564;2023-02-12T13:17:29;99689.66;;;0.23;100.00
25084;BME280;13075;55.682;37.564;2023-02-12T13:20:18;99696.59;;;-0.18;100.00
25084;BME280;13075;55.682;37.564;2023-02-12T13:28:49;99709.47;;;-0.35;100.00
25084;BME280;13075;55.682;37.564;2023-02-12T13:31:20;99704.81;;;-0.11;100.00
25084;BME280;13075;55.682;37.564;2023-02-12T13:33:59;99708.66;;;-0.15;100.00
25084;BME280;13075;55.682;37.564;2023-02-12T13:36:26;99714.00;;;-0.06;100.00
25084;BME280;13075;55.682;37.564;2023-02-12T13:41:33;99715.97;;;-0.19;100.00
25084;BME280;13075;55.682;37.564;2023-02-12T13:47:19;99719.28;;;-0.69;100.00
25084;BME280;13075;55.682;37.564;2023-02-12T13:52:42;99724.25;;;-0.55;100.00
25084;BME280;13075;55.682;37.564;2023-02-12T13:55:22;99735.03;;;-0.58;100.00
25084;BME280;13075;55.682;37.564;2023-02-12T14:01:09;99736.94;;;-0.60;100.00
25084;BME280;13075;55.682;37.564;2023-02-12T14:03:36;99737.66;;;-0.58;100.00
25084;BME280;13075;55.682;37.564;2023-02-12T14:06:18;99749.41;;;-0.73;100.00
25084;BME280;13075;55.682;37.564;2023-02-12T14:09:06;99742.31;;;-0.62;100.00
25084;BME280;13075;55.682;37.564;2023-02-12T14:11:32;99740.06;;;-0.66;100.00
25084;BME280;13075;55.682;37.564;2023-02-12T14:14:01;99745.34;;;-0.77;100.00
25084;BME280;13075;55.682;37.564;2023-02-12T14:22:05;99757.06;;;-0.81;100.00
25084;BME280;13075;55.682;37.564;2023-02-12T14:27:05;99769.81;;;-0.88;100.00
25084;BME280;13075;55.682;37.564;2023-02-12T14:29:32;99766.53;;;-0.58;100.00
25084;BME280;13075;55.682;37.564;2023-02-12T14:31:58;99781.72;;;-0.62;100.00
25084;BME280;13075;55.682;37.564;2023-02-12T14:37:32;99785.91;;;-0.27;100.00
25084;BME280;13075;55.682;37.564;2023-02-12T14:43:00;99788.72;;;-1.05;100.00
25084;BME280;13075;55.682;37.564;2023-02-12T14:45:38;99809.34;;;-0.78;100.00
25084;BME280;13075;55.682;37.564;2023-02-12T14:48:04;99795.97;;;-0.75;100.00
25084;BME280;13075;55.682;37.564;2023-02-12T14:50:37;99821.41;;;-0.98;100.00
25084;BME280;13075;55.682;37.564;2023-02-12T14:53:12;99816.16;;;-0.87;100.00
25084;BME280;13075;55.682;37.564;2023-02-12T14:55:45;99809.00;;;-1.07;100.00
25084;BME280;13075;55.682;37.564;2023-02-12T14:58:22;99829.50;;;-0.90;100.00
25084;BME280;13075;55.682;37.564;2023-02-12T15:00:54;99822.47;;;-0.78;100.00
25084;BME280;13075;55.682;37.564;2023-02-12T15:06:15;99838.81;;;-1.08;100.00
25084;BME280;13075;55.682;37.564;2023-02-12T15:08:50;99847.44;;;-1.06;100.00
25084;BME280;13075;55.682;37.564;2023-02-12T15:11:27;99852.78;;;-1.07;100.00
25084;BME280;13075;55.682;37.564;2023-02-12T15:14:19;99860.44;;;-1.04;100.00
25084;BME280;13075;55.682;37.564;2023-02-12T15:16:55;99866.16;;;-0.77;100.00
25084;BME280;13075;55.682;37.564;2023-02-12T15:21:59;99863.06;;;-0.82;100.00
25084;BME280;13075;55.682;37.564;2023-02-12T15:24:26;99863.19;;;-1.06;100.00
25084;BME280;13075;55.682;37.564;2023-02-12T15:26:54;99875.00;;;-0.89;100.00
25084;BME280;13075;55.682;37.564;2023-02-12T15:29:30;99878.34;;;-0.98;100.00